Time,TemperatureF,DewpointF,PressureIn,WindDirection,WindDirectionDegrees,WindSpeedMPH,WindSpeedGustMPH,Humidity,HourlyPrecipIn,Conditions,Clouds,dailyrainin,SolarRadiationWatts/m^2,SoftwareType,DateUTC
2013-09-22 00:03:00,51.4,49.0,29.78,SW,229,1.0,4.0,92,0.00,,,0.00,0,weatherlink.com 1.10,2013-09-22 07:03:00,
2013-09-22 00:18:00,51.6,49.0,29.78,South,174,2.0,3.0,91,0.00,,,0.00,0,weatherlink.com 1.10,2013-09-22 07:18:00,
2013-09-22 00:33:00,51.4,49.0,29.78,South,175,2.0,3.0,92,0.00,,,0.00,0,weatherlink.com 1.10,2013-09-22 07:33:00,
2013-09-22 00:48:00,51.5,49.0,29.78,SSE,165,1.0,5.0,91,0.00,,,0.00,0,weatherlink.com 1.10,2013-09-22 07:48:00,
2013-09-22 01:03:00,51.1,49.0,29.79,SSE,168,2.0,3.0,92,0.00,,,0.00,0,weatherlink.com 1.10,2013-09-22 08:03:00,
2013-09-22 01:18:00,50.3,48.0,29.79,SSE,165,3.0,3.0,93,0.00,,,0.00,0,weatherlink.com 1.10,2013-09-22 08:18:00,
2013-09-22 01:33:00,50.1,48.0,29.80,SSE,165,1.0,3.0,93,0.00,,,0.00,0,weatherlink.com 1.10,2013-09-22 08:33:00,
2013-09-22 01:49:00,49.7,48.0,29.80,SSE,165,2.0,2.0,94,0.00,,,0.00,0,weatherlink.com 1.10,2013-09-22 08:49:00,
2013-09-22 02:04:00,49.7,48.0,29.80,SE,136,3.0,3.0,95,0.00,,,0.00,0,weatherlink.com 1.10,2013-09-22 09:04:00,
2013-09-22 02:19:00,49.7,48.0,29.81,SE,136,1.0,2.0,94,0.00,,,0.00,0,weatherlink.com 1.10,2013-09-22 09:19:00,
2013-09-22 02:34:00,49.3,48.0,29.80,SE,136,2.0,2.0,94,0.00,,,0.00,0,weatherlink.com 1.10,2013-09-22 09:34:00,
2013-09-22 02:49:00,49.3,48.0,29.80,SE,136,0.0,3.0,95,0.00,,,0.00,0,weatherlink.com 1.10,2013-09-22 09:49:00,
2013-09-22 03:04:00,48.7,47.0,29.80,SE,136,1.0,2.0,95,0.00,,,0.00,0,weatherlink.com 1.10,2013-09-22 10:04:00,
2013-09-22 03:19:00,48.8,48.0,29.80,SE,136,1.0,2.0,95,0.00,,,0.00,0,weatherlink.com 1.10,2013-09-22 10:19:00,
2013-09-22 03:34:00,48.8,48.0,29.81,SE,136,2.0,3.0,95,0.00,,,0.00,0,weatherlink.com 1.10,2013-09-22 10:34:00,
2013-09-22 03:49:00,48.7,48.0,29.81,SE,136,2.0,3.0,96,0.00,,,0.00,0,weatherlink.com 1.10,2013-09-22 10:49:00,
2013-09-22 04:04:00,48.8,48.0,29.80,SE,136,2.0,3.0,96,0.00,,,0.00,0,weatherlink.com 1.10,2013-09-22 11:04:00,
2013-09-22 04:19:00,48.8,48.0,29.80,SE,136,2.0,3.0,96,0.00,,,0.00,0,weatherlink.com 1.10,2013-09-22 11:19:00,
2013-09-22 04:34:00,48.9,48.0,29.81,SE,136,2.0,3.0,96,0.00,,,0.00,0,weatherlink.com 1.10,2013-09-22 11:34:00,
2013-09-22 04:49:00,48.6,48.0,29.81,SE,136,0.0,3.0,96,0.00,,,0.00,0,weatherlink.com 1.10,2013-09-22 11:49:00,
2013-09-22 05:04:00,48.1,47.0,29.82,SE,136,2.0,2.0,96,0.00,,,0.00,0,weatherlink.com 1.10,2013-09-22 12:04:00,
2013-09-22 05:19:00,48.3,47.0,29.82,SE,136,1.0,3.0,96,0.00,,,0.00,0,weatherlink.com 1.10,2013-09-22 12:19:00,
2013-09-22 05:34:00,48.5,48.0,29.82,SE,136,2.0,3.0,96,0.00,,,0.00,0,weatherlink.com 1.10,2013-09-22 12:34:00,
2013-09-22 05:49:00,48.3,47.0,29.82,SE,136,2.0,3.0,96,0.00,,,0.00,0,weatherlink.com 1.10,2013-09-22 12:49:00,
2013-09-22 06:04:00,48.2,47.0,29.82,SE,136,3.0,3.0,96,0.00,,,0.00,0,weatherlink.com 1.10,2013-09-22 13:04:00,
2013-09-22 06:19:00,48.3,47.0,29.83,SE,144,1.0,3.0,96,0.00,,,0.00,0,weatherlink.com 1.10,2013-09-22 13:19:00,
2013-09-22 06:34:00,48.2,47.0,29.83,SSE,152,2.0,3.0,96,0.00,,,0.00,0,weatherlink.com 1.10,2013-09-22 13:34:00,
2013-09-22 06:48:00,47.7,47.0,29.84,SSE,152,1.0,2.0,96,0.00,,,0.00,0,weatherlink.com 1.10,2013-09-22 13:48:00,
2013-09-22 07:04:00,47.6,47.0,29.84,SSE,152,2.0,3.0,96,0.00,,,0.00,5,weatherlink.com 1.10,2013-09-22 14:04:00,
2013-09-22 07:19:00,47.7,47.0,29.84,SSE,152,2.0,3.0,97,0.00,,,0.00,11,weatherlink.com 1.10,2013-09-22 14:19:00,
2013-09-22 07:34:00,48.1,47.0,29.84,SSE,152,1.0,2.0,97,0.00,,,0.00,14,weatherlink.com 1.10,2013-09-22 14:34:00,
2013-09-22 07:49:00,48.6,48.0,29.85,SSE,151,1.0,2.0,97,0.00,,,0.00,18,weatherlink.com 1.10,2013-09-22 14:49:00,
2013-09-22 08:04:00,48.9,48.0,29.85,SSE,150,0.0,1.0,97,0.00,,,0.00,21,weatherlink.com 1.10,2013-09-22 15:04:00,
2013-09-22 08:19:00,49.0,48.0,29.85,SSE,150,0.0,0.0,97,0.00,,,0.00,37,weatherlink.com 1.10,2013-09-22 15:19:00,
2013-09-22 08:34:00,49.5,49.0,29.85,SSE,150,0.0,1.0,97,0.00,,,0.00,35,weatherlink.com 1.10,2013-09-22 15:34:00,
2013-09-22 08:49:00,51.5,51.0,29.86,SSE,150,0.0,2.0,97,0.00,,,0.00,279,weatherlink.com 1.10,2013-09-22 15:49:00,
2013-09-22 09:04:00,52.9,52.0,29.87,ENE,59,0.0,2.0,97,0.00,,,0.00,325,weatherlink.com 1.10,2013-09-22 16:04:00,
2013-09-22 09:20:00,55.6,54.0,29.87,NNW,339,2.0,3.0,95,0.00,,,0.00,366,weatherlink.com 1.10,2013-09-22 16:20:00,
2013-09-22 09:35:00,56.7,54.0,29.88,NNW,346,0.0,2.0,89,0.00,,,0.00,413,weatherlink.com 1.10,2013-09-22 16:35:00,
2013-09-22 09:50:00,57.9,54.0,29.88,West,281,1.0,4.0,85,0.00,,,0.00,454,weatherlink.com 1.10,2013-09-22 16:50:00,
2013-09-22 10:05:00,59.6,54.0,29.88,WNW,292,1.0,5.0,81,0.00,,,0.00,515,weatherlink.com 1.10,2013-09-22 17:05:00,
2013-09-22 10:20:00,61.3,55.0,29.88,WNW,291,1.0,5.0,79,0.00,,,0.00,552,weatherlink.com 1.10,2013-09-22 17:20:00,
2013-09-22 10:34:00,62.5,53.0,29.88,NW,319,4.0,7.0,72,0.00,,,0.00,591,weatherlink.com 1.10,2013-09-22 17:34:00,
2013-09-22 10:50:00,64.1,53.0,29.88,West,278,3.0,6.0,68,0.00,,,0.00,628,weatherlink.com 1.10,2013-09-22 17:50:00,
2013-09-22 11:05:00,65.2,53.0,29.88,NW,323,6.0,6.0,65,0.01,,,0.01,657,weatherlink.com 1.10,2013-09-22 18:05:00,
2013-09-22 11:20:00,66.2,54.0,29.88,West,265,2.0,7.0,65,0.01,,,0.01,680,weatherlink.com 1.10,2013-09-22 18:20:00,
2013-09-22 11:35:00,67.4,54.0,29.88,WNW,287,7.0,7.0,63,0.01,,,0.01,703,weatherlink.com 1.10,2013-09-22 18:35:00,
2013-09-22 11:50:00,68.0,53.0,29.88,WNW,296,2.0,6.0,59,0.01,,,0.01,728,weatherlink.com 1.10,2013-09-22 18:50:00,
2013-09-22 12:05:00,69.2,55.0,29.87,WSW,258,5.0,8.0,60,0.00,,,0.01,742,weatherlink.com 1.10,2013-09-22 19:05:00,
2013-09-22 12:20:00,70.3,53.0,29.87,WNW,294,4.0,9.0,54,0.00,,,0.01,749,weatherlink.com 1.10,2013-09-22 19:20:00,
2013-09-22 12:35:00,71.3,52.0,29.87,NNW,338,3.0,7.0,50,0.00,,,0.01,759,weatherlink.com 1.10,2013-09-22 19:35:00,
2013-09-22 12:50:00,71.0,52.0,29.86,WSW,244,2.0,8.0,51,0.00,,,0.01,777,weatherlink.com 1.10,2013-09-22 19:50:00,
2013-09-22 13:06:00,72.0,52.0,29.86,WSW,246,5.0,7.0,50,0.00,,,0.01,863,weatherlink.com 1.10,2013-09-22 20:06:00,
2013-09-22 13:21:00,73.8,50.0,29.86,West,266,2.0,12.0,44,0.00,,,0.01,819,weatherlink.com 1.10,2013-09-22 20:21:00,
2013-09-22 13:36:00,74.2,50.0,29.86,NNW,329,4.0,10.0,42,0.00,,,0.01,773,weatherlink.com 1.10,2013-09-22 20:36:00,
2013-09-22 13:51:00,74.2,49.0,29.85,North,360,4.0,10.0,41,0.00,,,0.01,772,weatherlink.com 1.10,2013-09-22 20:51:00,
2013-09-22 14:06:00,74.6,48.0,29.84,WNW,283,5.0,11.0,39,0.00,,,0.01,807,weatherlink.com 1.10,2013-09-22 21:06:00,
2013-09-22 14:21:00,75.5,47.0,29.84,WNW,295,4.0,12.0,37,0.00,,,0.01,747,weatherlink.com 1.10,2013-09-22 21:21:00,
2013-09-22 14:36:00,76.0,49.0,29.84,WSW,253,6.0,11.0,38,0.00,,,0.01,693,weatherlink.com 1.10,2013-09-22 21:36:00,
2013-09-22 14:51:00,76.2,49.0,29.84,West,263,8.0,11.0,38,0.00,,,0.01,668,weatherlink.com 1.10,2013-09-22 21:51:00,
2013-09-22 15:06:00,75.7,45.0,29.83,West,265,6.0,11.0,33,0.00,,,0.01,643,weatherlink.com 1.10,2013-09-22 22:06:00,
2013-09-22 15:21:00,75.8,45.0,29.84,NW,323,6.0,10.0,33,0.00,,,0.01,610,weatherlink.com 1.10,2013-09-22 22:21:00,
2013-09-22 15:36:00,75.7,44.0,29.84,West,259,7.0,11.0,32,0.00,,,0.01,573,weatherlink.com 1.10,2013-09-22 22:36:00,
2013-09-22 15:51:00,76.5,46.0,29.84,WSW,253,11.0,11.0,34,0.00,,,0.01,541,weatherlink.com 1.10,2013-09-22 22:51:00,
2013-09-22 16:06:00,75.4,47.0,29.83,WSW,246,2.0,11.0,37,0.00,,,0.01,499,weatherlink.com 1.10,2013-09-22 23:06:00,
2013-09-22 16:21:00,75.8,46.0,29.84,West,277,3.0,11.0,35,0.00,,,0.01,457,weatherlink.com 1.10,2013-09-22 23:21:00,
2013-09-22 16:36:00,75.7,46.0,29.83,NW,323,4.0,10.0,35,0.00,,,0.01,468,weatherlink.com 1.10,2013-09-22 23:36:00,
2013-09-22 16:51:00,74.7,47.0,29.83,NNW,331,10.0,11.0,37,0.00,,,0.01,367,weatherlink.com 1.10,2013-09-22 23:51:00,
2013-09-22 17:06:00,74.1,47.0,29.83,NW,322,7.0,11.0,38,0.00,,,0.01,325,weatherlink.com 1.10,2013-09-23 00:06:00,
2013-09-22 17:21:00,73.7,47.0,29.84,NW,326,3.0,10.0,39,0.00,,,0.01,278,weatherlink.com 1.10,2013-09-23 00:21:00,
2013-09-22 17:36:00,73.2,47.0,29.84,West,263,4.0,10.0,40,0.00,,,0.01,234,weatherlink.com 1.10,2013-09-23 00:36:00,
2013-09-22 18:21:00,69.1,47.0,29.84,West,268,5.0,14.0,45,0.00,,,0.01,77,weatherlink.com 1.10,2013-09-23 01:21:00,
2013-09-22 18:35:00,67.9,47.0,29.84,West,272,3.0,9.0,47,0.00,,,0.01,23,weatherlink.com 1.10,2013-09-23 01:35:00,
2013-09-22 18:51:00,66.8,47.0,29.85,WNW,302,4.0,6.0,50,0.00,,,0.01,12,weatherlink.com 1.10,2013-09-23 01:51:00,
2013-09-22 19:06:00,65.4,47.0,29.84,NW,310,4.0,8.0,52,0.00,,,0.01,5,weatherlink.com 1.10,2013-09-23 02:06:00,
2013-09-22 19:21:00,64.3,47.0,29.85,NW,306,1.0,6.0,54,0.00,,,0.01,0,weatherlink.com 1.10,2013-09-23 02:21:00,
2013-09-22 19:36:00,63.6,48.0,29.86,WSW,252,1.0,8.0,57,0.00,,,0.01,0,weatherlink.com 1.10,2013-09-23 02:36:00,
2013-09-22 19:51:00,62.7,48.0,29.86,WSW,250,4.0,7.0,59,0.00,,,0.01,0,weatherlink.com 1.10,2013-09-23 02:51:00,
2013-09-22 20:06:00,62.2,49.0,29.87,WNW,290,1.0,7.0,62,0.00,,,0.01,0,weatherlink.com 1.10,2013-09-23 03:06:00,
2013-09-22 20:21:00,61.6,49.0,29.87,West,261,1.0,8.0,63,0.00,,,0.01,0,weatherlink.com 1.10,2013-09-23 03:21:00,
2013-09-22 20:36:00,60.9,49.0,29.87,WSW,243,0.0,6.0,66,0.00,,,0.01,0,weatherlink.com 1.10,2013-09-23 03:36:00,
2013-09-22 20:50:00,60.2,50.0,29.88,West,281,2.0,4.0,68,0.00,,,0.01,0,weatherlink.com 1.10,2013-09-23 03:50:00,
2013-09-22 21:06:00,59.5,50.0,29.88,NW,323,1.0,4.0,70,0.00,,,0.01,0,weatherlink.com 1.10,2013-09-23 04:06:00,
2013-09-22 21:20:00,58.6,50.0,29.88,SW,219,2.0,2.0,73,0.00,,,0.01,0,weatherlink.com 1.10,2013-09-23 04:20:00,
2013-09-22 21:36:00,57.7,50.0,29.88,SW,236,2.0,2.0,75,0.00,,,0.01,0,weatherlink.com 1.10,2013-09-23 04:36:00,
2013-09-22 21:51:00,57.0,50.0,29.88,SW,215,0.0,2.0,77,0.00,,,0.01,0,weatherlink.com 1.10,2013-09-23 04:51:00,
2013-09-22 22:06:00,56.7,50.0,29.89,South,184,1.0,3.0,78,0.00,,,0.01,0,weatherlink.com 1.10,2013-09-23 05:06:00,
2013-09-22 22:21:00,56.5,50.0,29.89,SSW,192,0.0,2.0,78,0.00,,,0.01,0,weatherlink.com 1.10,2013-09-23 05:21:00,
2013-09-22 22:36:00,56.2,50.0,29.89,SE,134,2.0,2.0,79,0.00,,,0.01,0,weatherlink.com 1.10,2013-09-23 05:36:00,
2013-09-22 22:51:00,56.3,50.0,29.89,North,355,1.0,3.0,79,0.00,,,0.01,0,weatherlink.com 1.10,2013-09-23 05:51:00,
2013-09-22 23:06:00,56.0,50.0,29.89,WNW,290,0.0,3.0,79,0.00,,,0.01,0,weatherlink.com 1.10,2013-09-23 06:06:00,
2013-09-22 23:21:00,55.7,50.0,29.89,WSW,244,1.0,6.0,80,0.00,,,0.01,0,weatherlink.com 1.10,2013-09-23 06:21:00,
2013-09-22 23:37:00,54.9,50.0,29.90,SE,140,2.0,3.0,82,0.00,,,0.01,0,weatherlink.com 1.10,2013-09-23 06:37:00,
2013-09-22 23:52:00,54.5,49.0,29.90,SE,138,1.0,3.0,83,0.00,,,0.01,0,weatherlink.com 1.10,2013-09-23 06:52:00,